Hannibal, Missouri
Current Conditions -  °F | °C
As of 4:15 PM on Saturday 20 Dec 2014 (Local Time) from KHAE Reporting Station
Haze Haze  
Wind Chill: 37°   Ceiling: 2700
Heat Index: 37°   Visibility: 5mi
Dew Point: 34°   Wind: 3mph
Humidity: 87%   Direction: 140°SE
Pressure: 30.2"   Gusts: NA
Location:  39.7°N, 91.38°W
Report Text: KHAE 202215Z AUTO 14003KT 5SM HZ SCT013 OVC027 03/01 A3020 RMK AO2
Loading
Personal Weather Stations






























Interactive Weather Map New forecast layout! Learn more

10-Day Weather Forecast

Advertisements
Track Severe Weather on mobile